createdAt,value
2017-11-05T04:31:23.983Z,42.47
2017-11-05T04:33:51.568Z,42.55
2017-11-05T04:36:19.254Z,47.50
2017-11-05T04:38:47.733Z,44.90
2017-11-05T04:41:16.078Z,39.72
2017-11-05T04:43:43.702Z,39.88
2017-11-05T04:46:11.326Z,44.40
2017-11-05T04:48:39.674Z,45.30
2017-11-05T04:51:07.277Z,38.58
2017-11-05T04:53:35.638Z,39.38
2017-11-05T04:56:03.982Z,38.78
2017-11-05T04:58:31.628Z,41.72
2017-11-05T05:00:59.238Z,45.60
2017-11-05T05:03:27.609Z,47.25
2017-11-05T05:05:55.994Z,50.25
2017-11-05T05:08:24.374Z,54.97
2017-11-05T05:10:52.797Z,42.95
2017-11-05T05:13:20.411Z,51.30
2017-11-05T05:15:48.785Z,52.28
2017-11-05T05:18:17.168Z,51.55
2017-11-05T05:20:45.546Z,51.22
2017-11-05T05:23:13.915Z,45.47
2017-11-05T05:25:42.290Z,53.50
2017-11-05T05:28:10.680Z,44.95
2017-11-05T05:30:39.255Z,50.85
2017-11-05T05:33:07.598Z,54.35
2017-11-05T05:35:35.177Z,47.35
2017-11-05T05:38:02.949Z,57.45
2017-11-05T05:40:31.314Z,65.72
2017-11-05T05:42:59.697Z,55.53
2017-11-05T05:45:27.477Z,60.15
2017-11-05T05:47:55.066Z,62.45
2017-11-05T05:50:22.646Z,46.58
2017-11-05T05:52:50.346Z,52.22
2017-11-05T05:55:18.726Z,68.28
2017-11-05T05:57:47.074Z,74.12
2017-11-05T06:00:14.690Z,53.25
2017-11-05T06:02:42.317Z,47.97
2017-11-05T06:05:10.698Z,46.63
2017-11-05T06:07:39.087Z,57.33
2017-11-05T06:10:06.680Z,52.28
2017-11-05T06:12:34.294Z,52.08
2017-11-05T06:15:02.685Z,60.10
2017-11-05T06:17:30.335Z,53.85
2017-11-05T06:19:58.684Z,53.45
2017-11-05T06:22:26.365Z,61.30
2017-11-05T06:24:54.710Z,57.92
2017-11-05T06:27:22.333Z,66.12
2017-11-05T06:29:49.919Z,65.82
2017-11-05T06:32:17.501Z,81.78
2017-11-05T06:34:45.110Z,69.25
2017-11-05T06:37:12.690Z,56.15
2017-11-05T06:39:40.278Z,73.95
2017-11-05T06:42:07.923Z,106.20
2017-11-05T06:44:35.523Z,99.13
2017-11-05T06:47:03.874Z,93.65
2017-11-05T06:49:31.563Z,142.98
2017-11-05T06:51:59.909Z,112.95
2017-11-05T06:54:27.606Z,114.00
2017-11-05T06:56:55.230Z,181.32
2017-11-05T06:59:22.805Z,48.30
2017-11-05T07:01:51.150Z,37.80
2017-11-05T07:04:18.765Z,54.85
2017-11-05T07:06:46.344Z,95.20
2017-11-05T07:09:13.926Z,89.53
2017-11-05T07:11:41.625Z,72.18
2017-11-05T07:14:09.973Z,92.55
2017-11-05T07:16:37.549Z,78.30
2017-11-05T07:19:05.230Z,56.30
2017-11-05T07:21:33.569Z,54.10
2017-11-05T07:24:01.159Z,46.75
2017-11-05T07:26:29.639Z,41.30
2017-11-05T07:28:57.990Z,42.33
2017-11-05T07:31:25.574Z,44.03
2017-11-05T07:33:53.974Z,38.22
2017-11-05T07:36:21.605Z,34.53
2017-11-05T07:38:49.985Z,32.72
2017-11-05T07:41:18.378Z,30.55
2017-11-05T07:43:45.957Z,33.63
2017-11-05T07:46:13.586Z,31.87
2017-11-05T07:48:41.988Z,32.88
2017-11-05T07:51:09.572Z,31.98
2017-11-05T07:53:37.153Z,31.30
2017-11-05T07:56:04.837Z,32.95
2017-11-05T07:58:33.187Z,25.88
2017-11-05T08:01:00.856Z,28.62
2017-11-05T08:03:28.538Z,30.98
2017-11-05T08:05:56.913Z,30.45
2017-11-05T08:08:25.399Z,24.48
2017-11-05T08:10:53.746Z,23.35
2017-11-05T08:13:22.866Z,211.80
2017-11-05T08:15:51.259Z,36.13
2017-11-05T08:18:18.854Z,28.83
2017-11-05T08:20:46.463Z,30.70
2017-11-05T08:23:14.829Z,41.17
2017-11-05T08:25:42.446Z,36.05
2017-11-05T08:28:10.023Z,28.83
2017-11-05T08:30:37.654Z,29.05
2017-11-05T08:33:05.233Z,25.67
2017-11-05T08:35:32.814Z,22.70
2017-11-05T08:38:01.988Z,19.08
2017-11-05T08:40:29.569Z,20.08
2017-11-05T08:42:57.249Z,21.08
2017-11-05T08:45:25.631Z,18.73
2017-11-05T08:47:54.003Z,18.15
2017-11-05T08:50:22.362Z,22.17
2017-11-05T08:52:49.978Z,19.60
2017-11-05T08:55:17.567Z,21.10
2017-11-05T08:57:45.163Z,24.10
2017-11-05T09:00:13.537Z,21.30
2017-11-05T09:02:41.890Z,17.33
2017-11-05T09:05:09.475Z,18.37
2017-11-05T09:07:38.144Z,24.75
2017-11-05T09:10:07.382Z,23.73
2017-11-05T09:12:34.973Z,21.25
2017-11-05T09:15:02.614Z,33.50
2017-11-05T09:17:30.203Z,29.63
2017-11-05T09:19:57.795Z,18.85
2017-11-05T09:22:26.291Z,22.52
2017-11-05T09:24:53.892Z,16.02
2017-11-05T09:27:21.481Z,22.83
2017-11-05T09:29:49.866Z,22.98
2017-11-05T09:32:18.233Z,16.83
2017-11-05T09:34:46.594Z,18.37
2017-11-05T09:37:14.230Z,20.02
2017-11-05T09:39:41.814Z,17.37
2017-11-05T09:42:09.401Z,25.00
2017-11-05T09:44:37.037Z,14.13
2017-11-05T09:47:05.404Z,18.27
2017-11-05T09:49:32.994Z,17.50
2017-11-05T09:52:01.389Z,18.58
2017-11-05T09:54:28.984Z,18.42
2017-11-05T09:56:56.577Z,19.70
2017-11-05T09:59:24.960Z,21.98
2017-11-05T10:01:53.320Z,18.92
2017-11-05T10:04:20.959Z,25.40
2017-11-05T10:06:48.550Z,14.25
2017-11-05T10:09:16.913Z,24.73
2017-11-05T10:11:44.667Z,19.62
2017-11-05T10:14:12.266Z,19.58
2017-11-05T10:16:39.868Z,21.10
2017-11-05T10:19:07.496Z,19.87
2017-11-05T10:21:35.099Z,20.15
2017-11-05T10:24:02.730Z,20.77
2017-11-05T10:26:30.335Z,22.50
2017-11-05T10:28:57.937Z,20.08
2017-11-05T10:31:25.573Z,20.67
2017-11-05T10:33:53.929Z,25.83
2017-11-05T10:36:21.524Z,20.58
2017-11-05T10:38:49.182Z,22.45
2017-11-05T10:41:16.770Z,23.90
2017-11-05T10:43:44.369Z,19.95
2017-11-05T10:46:12.020Z,16.37
2017-11-05T10:48:39.623Z,19.37
2017-11-05T10:51:07.219Z,18.17
2017-11-05T10:53:34.861Z,17.70
2017-11-05T10:56:02.459Z,21.80
2017-11-05T10:58:30.051Z,19.95
2017-11-05T11:00:57.698Z,14.80
2017-11-05T11:03:26.062Z,15.25
2017-11-05T11:05:53.662Z,16.52
2017-11-05T11:08:21.302Z,25.25
2017-11-05T11:10:48.923Z,15.65
2017-11-05T11:13:16.526Z,15.55
2017-11-05T11:15:44.151Z,19.40
2017-11-05T11:18:11.746Z,20.20
2017-11-05T11:20:39.363Z,16.60
2017-11-05T11:23:06.966Z,21.25
2017-11-05T11:25:34.566Z,26.40
2017-11-05T11:28:02.230Z,34.28
2017-11-05T11:30:29.827Z,19.30
2017-11-05T11:32:58.186Z,13.77
2017-11-05T11:35:25.802Z,16.50
2017-11-05T11:37:53.393Z,14.00
2017-11-05T11:40:21.025Z,19.02
2017-11-05T11:42:48.629Z,19.20
2017-11-05T11:45:16.226Z,15.98
2017-11-05T11:47:43.870Z,15.70
2017-11-05T11:50:11.466Z,14.55
2017-11-05T11:52:39.060Z,13.38
2017-11-05T11:55:06.687Z,20.25
2017-11-05T11:57:34.286Z,17.37
2017-11-05T12:00:02.666Z,17.00
2017-11-05T12:02:31.093Z,23.73
2017-11-05T12:04:58.710Z,18.13
2017-11-05T12:07:27.066Z,13.90
2017-11-05T12:09:54.730Z,16.15
2017-11-05T12:12:22.330Z,16.92
2017-11-05T12:14:49.926Z,11.55
2017-11-05T12:17:17.584Z,25.12
2017-11-05T12:19:45.174Z,12.55
2017-11-05T12:22:12.770Z,14.75
2017-11-05T12:24:40.401Z,23.00
2017-11-05T12:27:08.770Z,21.08
2017-11-05T12:29:36.366Z,21.90
2017-11-05T12:32:03.979Z,16.20
2017-11-05T12:34:31.591Z,20.02
2017-11-05T12:36:59.194Z,18.35
2017-11-05T12:39:26.815Z,19.02
2017-11-05T12:41:54.411Z,21.33
2017-11-05T12:44:22.069Z,19.77
2017-11-05T12:46:49.662Z,77.25
2017-11-05T12:49:18.026Z,72.55
2017-11-05T12:51:46.451Z,36.67
2017-11-05T12:54:14.046Z,60.78
2017-11-05T12:56:41.642Z,23.92
2017-11-05T12:59:09.271Z,27.45
2017-11-05T13:01:36.886Z,21.58
2017-11-05T13:04:04.563Z,17.13
2017-11-05T13:06:32.195Z,12.73
2017-11-05T13:08:59.792Z,17.73
2017-11-05T13:11:27.390Z,17.80
2017-11-05T13:13:55.782Z,19.15
2017-11-05T13:16:23.381Z,18.25
2017-11-05T13:18:51.789Z,17.08
2017-11-05T13:21:19.381Z,19.05
2017-11-05T13:23:47.996Z,21.08
2017-11-05T13:26:15.673Z,17.98
2017-11-05T13:28:43.257Z,13.10
2017-11-05T13:31:11.625Z,18.58
2017-11-05T13:33:40.054Z,14.27
2017-11-05T13:36:07.647Z,17.75
2017-11-05T13:38:35.254Z,12.18
2017-11-05T13:41:02.903Z,16.12
2017-11-05T13:43:31.406Z,16.65
2017-11-05T13:45:58.997Z,19.87
2017-11-05T13:48:26.611Z,24.30
2017-11-05T13:50:54.206Z,22.85
2017-11-05T13:53:22.110Z,21.30
2017-11-05T13:55:49.702Z,12.98
2017-11-05T13:58:17.298Z,14.85
2017-11-05T14:00:44.933Z,14.40
2017-11-05T14:03:12.521Z,13.23
2017-11-05T14:05:40.114Z,29.17
2017-11-05T14:08:08.519Z,26.92
2017-11-05T14:10:36.115Z,21.65
2017-11-05T14:13:03.706Z,22.40
2017-11-05T14:15:31.345Z,21.02
2017-11-05T14:17:58.940Z,27.08
2017-11-05T14:20:27.299Z,25.95
2017-11-05T14:22:54.910Z,20.77
2017-11-05T14:25:22.501Z,24.23
2017-11-05T14:27:50.118Z,36.20
2017-11-05T14:30:17.707Z,29.98
2017-11-05T14:32:45.297Z,32.67
2017-11-05T14:35:12.945Z,31.50
2017-11-05T14:37:40.534Z,31.80
2017-11-05T14:40:08.881Z,30.33
2017-11-05T14:42:36.502Z,36.13
2017-11-05T14:45:04.090Z,34.08
2017-11-05T14:47:31.682Z,46.53
2017-11-05T14:50:00.095Z,25.85
2017-11-05T14:52:27.681Z,46.22
2017-11-05T14:54:55.267Z,32.83
2017-11-05T14:57:23.001Z,36.20
2017-11-05T14:59:50.585Z,36.97
2017-11-05T15:02:18.174Z,34.90
2017-11-05T15:04:45.786Z,39.22
2017-11-05T15:07:13.371Z,42.50
2017-11-05T15:09:41.726Z,43.10
2017-11-05T15:12:09.354Z,44.30
2017-11-05T15:14:36.936Z,48.03
2017-11-05T15:17:04.518Z,75.45
2017-11-05T15:19:32.139Z,56.88
2017-11-05T15:21:59.721Z,65.12
2017-11-05T15:24:27.298Z,59.10
2017-11-05T15:26:54.904Z,66.93
2017-11-05T15:29:22.487Z,54.35
2017-11-05T15:31:50.117Z,50.10
2017-11-05T15:34:17.710Z,40.47
2017-11-05T15:36:45.291Z,56.22
2017-11-05T15:39:12.893Z,44.83
2017-11-05T15:41:40.473Z,54.15
2017-11-05T15:44:08.051Z,47.60
2017-11-05T15:46:35.690Z,55.45
2017-11-05T15:49:03.274Z,49.17
2017-11-05T15:51:30.857Z,46.92
2017-11-05T15:53:59.238Z,46.58
2017-11-05T15:56:27.592Z,39.58
2017-11-05T15:58:55.187Z,35.67
2017-11-05T16:01:22.814Z,45.60
2017-11-05T16:03:50.407Z,47.25
2017-11-05T16:06:18.000Z,64.00
2017-11-05T16:08:45.626Z,51.95
2017-11-05T16:11:13.218Z,55.33
2017-11-05T16:13:40.801Z,61.58
2017-11-05T16:16:08.402Z,59.47
2017-11-05T16:18:35.998Z,27.08
2017-11-05T16:21:03.605Z,15.30
2017-11-05T16:23:32.006Z,14.52
2017-11-05T16:25:59.582Z,10.85
2017-11-05T16:28:27.158Z,16.17
2017-11-05T16:30:54.763Z,9.20
2017-11-05T16:33:23.105Z,9.07
2017-11-05T16:35:50.711Z,8.27
2017-11-05T16:38:18.289Z,7.65
2017-11-05T16:40:45.870Z,6.72
2017-11-05T16:43:13.493Z,9.55
2017-11-05T16:45:41.082Z,6.00
2017-11-05T16:48:09.421Z,9.52
2017-11-05T16:50:37.030Z,11.50
2017-11-05T16:53:04.605Z,11.98
2017-11-05T16:55:32.178Z,9.18
2017-11-05T16:58:00.574Z,11.25
2017-11-05T17:00:28.153Z,20.27
2017-11-05T17:02:55.726Z,10.10
2017-11-05T17:05:23.370Z,15.38
2017-11-05T17:07:50.950Z,17.85
2017-11-05T17:10:18.522Z,11.45
2017-11-05T17:12:46.159Z,14.63
2017-11-05T17:15:13.743Z,12.18
2017-11-05T17:17:41.330Z,15.15
2017-11-05T17:20:09.706Z,7.00
2017-11-05T17:22:38.130Z,9.75
2017-11-05T17:25:05.709Z,10.25
2017-11-05T17:27:33.310Z,9.30
2017-11-05T17:30:00.894Z,7.30
2017-11-05T17:32:28.475Z,12.25
2017-11-05T17:34:56.077Z,11.32
2017-11-05T17:37:24.423Z,7.90
2017-11-05T17:39:52.054Z,9.75
2017-11-05T17:42:19.637Z,15.75
2017-11-05T17:44:47.215Z,8.38
2017-11-05T17:47:14.820Z,16.62
2017-11-05T17:49:42.399Z,11.38
2017-11-05T17:52:09.978Z,12.10
2017-11-05T17:54:37.581Z,14.45
2017-11-05T17:57:05.161Z,18.83
2017-11-05T17:59:33.023Z,10.40
2017-11-05T18:02:00.651Z,14.93
2017-11-05T18:04:28.999Z,22.65
2017-11-05T18:06:56.578Z,15.32
2017-11-05T18:09:24.962Z,14.30
2017-11-05T18:11:53.374Z,18.75
2017-11-05T18:14:20.965Z,16.30
2017-11-05T18:16:48.667Z,22.58
2017-11-05T18:19:17.012Z,13.38
2017-11-05T18:21:44.587Z,17.10
2017-11-05T18:24:12.257Z,15.32
2017-11-05T18:26:40.602Z,12.60
2017-11-05T18:29:08.190Z,12.60
2017-11-05T18:31:36.558Z,16.95
2017-11-05T18:34:04.133Z,13.55
2017-11-05T18:36:32.518Z,19.05
2017-11-05T18:39:00.168Z,21.83
2017-11-05T18:41:28.537Z,13.07
2017-11-05T18:43:57.034Z,22.05
2017-11-05T18:46:25.399Z,19.33
2017-11-05T18:48:53.746Z,15.57
2017-11-05T18:51:21.349Z,24.77
2017-11-05T18:53:48.997Z,19.35
2017-11-05T18:56:17.416Z,32.20
2017-11-05T18:58:45.138Z,15.13
2017-11-05T19:01:13.513Z,16.60
2017-11-05T19:03:41.861Z,18.33
2017-11-05T19:06:09.559Z,18.35
2017-11-05T19:08:37.142Z,18.77
2017-11-05T19:11:04.726Z,22.98
2017-11-05T19:13:32.345Z,22.20
2017-11-05T19:15:59.926Z,32.83
2017-11-05T19:18:27.501Z,25.83
2017-11-05T19:20:55.125Z,20.80
2017-11-05T19:23:22.771Z,25.98
2017-11-05T19:25:51.124Z,24.67
2017-11-05T19:28:19.530Z,25.15
2017-11-05T19:30:47.899Z,24.67
2017-11-05T19:33:16.258Z,24.92
2017-11-05T19:35:43.896Z,20.80
2017-11-05T19:38:11.488Z,23.73
2017-11-05T19:40:39.880Z,25.23
2017-11-05T19:43:07.459Z,27.48
2017-11-05T19:45:35.040Z,29.73
2017-11-05T19:48:02.665Z,26.23
2017-11-05T19:50:30.308Z,29.83
2017-11-05T19:52:58.658Z,37.15
2017-11-05T19:55:26.306Z,37.35
2017-11-05T19:57:53.893Z,41.37
2017-11-05T20:00:21.613Z,32.28
2017-11-05T20:02:49.375Z,34.55
2017-11-05T20:05:17.036Z,40.42
2017-11-05T20:07:44.642Z,45.05
2017-11-05T20:10:13.829Z,28.20
2017-11-05T20:12:41.430Z,33.67
2017-11-05T20:15:09.112Z,36.65
2017-11-05T20:17:37.226Z,25.12
2017-11-05T20:20:04.906Z,23.12
2017-11-05T20:22:33.246Z,25.27
2017-11-05T20:25:00.867Z,26.70
2017-11-05T20:27:28.451Z,39.55
2017-11-05T20:29:56.049Z,30.17
2017-11-05T20:32:24.428Z,20.77
2017-11-05T20:34:52.804Z,30.70
2017-11-05T20:37:21.302Z,36.00
2017-11-05T20:39:48.888Z,36.10
2017-11-05T20:42:16.474Z,23.67
2017-11-05T20:44:44.082Z,34.05
2017-11-05T20:47:11.714Z,32.75
2017-11-05T20:49:40.063Z,33.63
2017-11-05T20:52:07.865Z,28.00
2017-11-05T20:54:36.240Z,32.75
2017-11-05T20:57:04.589Z,27.30
2017-11-05T20:59:32.226Z,31.10
2017-11-05T21:01:59.808Z,20.23
2017-11-05T21:04:27.391Z,24.83
2017-11-05T21:06:56.557Z,25.15
2017-11-05T21:09:24.142Z,31.33
2017-11-05T21:11:52.490Z,21.20
2017-11-05T21:14:20.182Z,28.12
2017-11-05T21:16:48.522Z,26.42
2017-11-05T21:19:16.113Z,23.17
2017-11-05T21:21:44.600Z,24.08
2017-11-05T21:24:13.025Z,25.35
2017-11-05T21:26:40.606Z,26.77
2017-11-05T21:29:08.297Z,26.80
2017-11-05T21:31:36.674Z,26.37
2017-11-05T21:34:05.017Z,22.98
2017-11-05T21:36:32.622Z,27.70
2017-11-05T21:39:00.269Z,37.45
2017-11-05T21:41:28.618Z,31.50
2017-11-05T21:43:56.265Z,26.30
2017-11-05T21:46:23.866Z,31.60
2017-11-05T21:48:52.244Z,33.47
2017-11-05T21:51:20.626Z,38.05
2017-11-05T21:53:48.998Z,47.50
2017-11-05T21:56:17.366Z,33.72
2017-11-05T21:58:45.710Z,39.38
2017-11-05T22:01:13.305Z,30.02
2017-11-05T22:03:41.690Z,31.35
2017-11-05T22:06:10.064Z,32.22
2017-11-05T22:08:38.409Z,30.48
2017-11-05T22:11:06.055Z,34.35
2017-11-05T22:13:33.658Z,29.58
2017-11-05T22:16:02.038Z,33.63
2017-11-05T22:18:30.518Z,34.45
2017-11-05T22:20:58.890Z,37.67
2017-11-05T22:23:27.290Z,38.85
2017-11-05T22:25:54.870Z,36.35
2017-11-05T22:28:22.451Z,40.75
2017-11-05T22:30:50.255Z,34.17
2017-11-05T22:33:18.607Z,32.47
2017-11-05T22:35:46.186Z,41.58
2017-11-05T22:38:14.587Z,54.15
2017-11-05T22:40:42.226Z,54.97
2017-11-05T22:43:10.602Z,38.85
2017-11-05T22:45:38.982Z,38.10
2017-11-05T22:48:07.334Z,43.75
2017-11-05T22:50:34.917Z,46.13
2017-11-05T22:53:03.398Z,73.97
2017-11-05T22:55:31.746Z,56.92
2017-11-05T22:57:59.438Z,42.30
2017-11-05T23:00:27.823Z,49.75
2017-11-05T23:02:55.403Z,58.50
2017-11-05T23:05:22.982Z,51.22
2017-11-05T23:07:50.603Z,61.53
2017-11-05T23:10:18.182Z,48.08
2017-11-05T23:12:45.804Z,50.58
2017-11-05T23:15:14.226Z,64.97
2017-11-05T23:17:41.806Z,54.90
2017-11-05T23:20:09.382Z,56.60
2017-11-05T23:22:37.062Z,53.25
2017-11-05T23:25:05.411Z,60.42
2017-11-05T23:27:33.155Z,71.53
2017-11-05T23:30:00.862Z,67.22
